

Wyoming Mesonet
Water Resources Data System and State Climate Office
SEO WACNet, UW USACE UMRB, USDA-ARS, BLM
| Wind | Soil | |||||||||||||||||||
| Temp | Precip | Speed | Dir | Gust | Dir | Humidity | Pressure | Solar | Snow | Temperature (Deg F) | Moisture (%) | |||||||||
| Date Time (MST) | (F) | (in) | (mph) | (deg) | (mph) | (deg) | (%) | (Mbars) | (w/m^2) | (in) | 5cm | 10cm | 20cm | 50cm | 1m | 5cm | 10cm | 20cm | 50cm | 1m |
| 2026-08-30 00:00:00 | 62.29 | 0.00 | 8.82 | 202 | 12.42 | 217 | 86.8 | 874.0 | 0.0 | 0.7 | 78.98 | 80.96 | 79.16 | 79.52 | 69.80 | 15.2% | 20.0% | 24.0% | 26.4% | 44.8% |
| 2026-08-30 01:00:00 | 58.98 | 0.00 | 5.23 | 212 | 10.81 | 197 | 92.5 | 874.0 | 0.0 | 0.7 | 77.90 | 80.24 | 78.80 | 79.52 | 69.80 | 15.1% | 20.0% | 23.9% | 26.4% | 44.9% |
| 2026-08-30 02:00:00 | 58.30 | 0.00 | 6.65 | 201 | 8.08 | 224 | 91.0 | 874.0 | 0.0 | 0.7 | 76.82 | 79.34 | 78.80 | 79.52 | 69.80 | 14.9% | 20.0% | 24.0% | 26.4% | 45.1% |
| 2026-08-30 03:00:00 | 59.43 | 0.00 | 0.48 | 213 | 7.83 | 197 | 89.9 | 875.0 | 0.0 | 0.8 | 75.92 | 78.62 | 78.44 | 79.52 | 69.80 | 14.5% | 20.0% | 23.9% | 26.4% | 45.2% |
| 2026-08-30 04:00:00 | 58.19 | 0.00 | 5.29 | 203 | 6.34 | 200 | 88.1 | 875.0 | 0.0 | 0.7 | 75.02 | 78.08 | 78.08 | 79.52 | 69.80 | 14.4% | 20.0% | 23.9% | 26.5% | 44.8% |
| 2026-08-30 05:00:00 | 58.71 | 0.00 | 1.42 | 192 | 9.32 | 189 | 88.3 | 875.0 | 0.0 | 0.8 | 74.30 | 77.54 | 77.90 | 79.70 | 69.80 | 14.2% | 20.0% | 23.9% | 26.4% | 44.9% |
| 2026-08-30 06:00:00 | 58.37 | 0.00 | 5.54 | 202 | 8.94 | 197 | 87.3 | 875.0 | 110.9 | 1.0 | 73.76 | 76.82 | 77.36 | 79.52 | 69.80 | 14.2% | 19.9% | 23.8% | 26.4% | 45.1% |
| 2026-08-30 07:00:00 | 63.91 | 0.00 | 10.47 | 188 | 14.16 | 195 | 76.3 | 876.0 | 240.9 | 0.9 | 73.40 | 76.28 | 77.18 | 79.52 | 69.80 | 14.0% | 19.9% | 23.8% | 26.4% | 45.2% |
| 2026-08-30 08:00:00 | 69.24 | 0.00 | 9.52 | 192 | 14.16 | 176 | 58.3 | 876.0 | 322.9 | 0.9 | 73.40 | 75.92 | 76.82 | 79.70 | 69.80 | 13.9% | 19.9% | 23.8% | 26.4% | 45.2% |
| 2026-08-30 09:00:00 | 73.04 | 0.00 | 5.99 | 232 | 12.92 | 182 | 51.6 | 875.0 | 591.1 | 0.9 | 74.12 | 75.74 | 76.28 | 79.52 | 69.80 | 14.1% | 19.9% | 23.8% | 26.4% | 44.2% |
| 2026-08-30 10:00:00 | 77.90 | 0.00 | 9.95 | 178 | 14.16 | 213 | 41.5 | 875.0 | 716.5 | 0.9 | 75.74 | 75.74 | 76.10 | 79.70 | 69.80 | 14.6% | 19.9% | 23.7% | 26.5% | 45.1% |
| 2026-08-30 11:00:00 | 80.47 | 0.00 | 12.20 | 225 | 19.37 | 227 | 36.6 | 875.0 | 810.0 | 0.9 | 78.08 | 76.46 | 75.92 | 79.52 | 69.80 | 15.3% | 19.9% | 23.7% | 26.4% | 45.4% |
| 2026-08-30 12:00:00 | 85.73 | 0.00 | 11.10 | 199 | 19.89 | 196 | 33.0 | 874.0 | 1029.0 | 1.0 | 80.78 | 77.36 | 75.92 | 79.52 | 69.80 | 15.3% | 19.9% | 23.7% | 26.5% | 45.0% |
| 2026-08-30 13:00:00 | 85.62 | 0.00 | 10.03 | 244 | 23.22 | 206 | 25.1 | 874.0 | 464.0 | 0.7 | 82.76 | 78.62 | 75.92 | 79.52 | 69.80 | 15.4% | 20.0% | 23.7% | 26.4% | 45.0% |
| 2026-08-30 14:00:00 | 64.17 | 0.00 | 42.77 | 332 | 65.59 | 317 | 57.2 | 876.0 | 399.7 | 0.6 | 83.30 | 79.70 | 76.10 | 79.52 | 69.80 | 15.4% | 20.0% | 23.8% | 26.4% | 45.1% |
| 2026-08-30 15:00:00 | 62.49 | 0.00 | 18.05 | 4 | 48.70 | 329 | 61.6 | 877.0 | 509.1 | 0.8 | 82.22 | 80.24 | 76.28 | 79.52 | 69.80 | 15.3% | 20.0% | 23.7% | 26.4% | 45.1% |
| 2026-08-30 16:00:00 | 63.34 | 0.00 | 7.86 | 37 | 27.58 | 350 | 58.6 | 878.0 | 331.2 | 0.8 | 81.32 | 80.42 | 76.64 | 79.52 | 69.80 | 15.2% | 20.0% | 23.8% | 26.4% | 45.4% |
| 2026-08-30 17:00:00 | 65.93 | 0.00 | 3.26 | 70 | 10.44 | 47 | 50.4 | 877.0 | 275.4 | 0.6 | 81.14 | 80.24 | 76.82 | 79.34 | 69.80 | 15.3% | 20.0% | 23.8% | 26.4% | 44.9% |
| 2026-08-30 18:00:00 | 65.37 | 0.00 | 7.29 | 59 | 10.81 | 52 | 54.5 | 877.0 | 103.0 | 0.7 | 80.78 | 80.06 | 77.00 | 79.34 | 69.80 | 15.3% | 20.0% | 23.8% | 26.4% | 45.4% |
| 2026-08-30 19:00:00 | 60.76 | 0.00 | 7.89 | 64 | 10.19 | 61 | 61.9 | 877.0 | 0.0 | 0.7 | 79.70 | 79.70 | 77.18 | 79.34 | 69.80 | 15.2% | 20.0% | 23.8% | 26.4% | 44.6% |
| 2026-08-30 20:00:00 | 58.60 | 0.00 | 5.68 | 120 | 7.83 | 78 | 65.8 | 878.0 | 0.0 | 0.6 | 78.08 | 79.34 | 77.18 | 79.34 | 69.80 | 14.8% | 20.0% | 23.9% | 26.4% | 45.3% |
| 2026-08-30 21:00:00 | 52.07 | 0.00 | 6.59 | 197 | 7.58 | 198 | 77.6 | 878.0 | 0.0 | 0.6 | 76.64 | 78.62 | 77.18 | 79.34 | 69.80 | 14.9% | 20.0% | 23.8% | 26.4% | 44.9% |
| 2026-08-30 22:00:00 | 52.25 | 0.00 | 3.89 | 220 | 7.95 | 198 | 82.9 | 878.0 | 0.0 | 0.4 | 75.20 | 77.90 | 77.00 | 79.34 | 69.80 | 14.3% | 19.9% | 23.8% | 26.4% | 44.7% |
| 2026-08-30 23:00:00 | 48.51 | 0.00 | 4.38 | 217 | 6.46 | 213 | 85.8 | 878.0 | 0.0 | 0.5 | 73.94 | 77.18 | 76.64 | 79.34 | 69.80 | 13.8% | 19.9% | 23.8% | 26.4% | 45.4% |